sensor_id;sensor_type;location;lat;lon;timestamp;temperature;humidity
58513;DHT22;44302;47.914;10.642;2022-09-21T00:01:23;6.10;99.90
58513;DHT22;44302;47.914;10.642;2022-09-21T00:03:56;6.10;99.90
58513;DHT22;44302;47.914;10.642;2022-09-21T00:06:24;6.20;99.90
58513;DHT22;44302;47.914;10.642;2022-09-21T00:08:50;6.20;99.90
58513;DHT22;44302;47.914;10.642;2022-09-21T00:11:22;6.10;99.90
58513;DHT22;44302;47.914;10.642;2022-09-21T00:13:56;6.20;99.90
58513;DHT22;44302;47.914;10.642;2022-09-21T00:16:24;6.00;99.90
58513;DHT22;44302;47.914;10.642;2022-09-21T00:18:50;6.00;99.90
58513;DHT22;44302;47.914;10.642;2022-09-21T00:21:17;5.90;99.90
58513;DHT22;44302;47.914;10.642;2022-09-21T00:23:43;5.80;99.90
58513;DHT22;44302;47.914;10.642;2022-09-21T00:26:13;5.80;99.90
58513;DHT22;44302;47.914;10.642;2022-09-21T00:28:40;5.90;99.90
58513;DHT22;44302;47.914;10.642;2022-09-21T00:31:09;5.80;99.90
58513;DHT22;44302;47.914;10.642;2022-09-21T00:33:37;5.80;99.90
58513;DHT22;44302;47.914;10.642;2022-09-21T00:36:05;5.80;99.90
58513;DHT22;44302;47.914;10.642;2022-09-21T00:38:31;5.80;99.90
58513;DHT22;44302;47.914;10.642;2022-09-21T00:40:57;5.70;99.90
58513;DHT22;44302;47.914;10.642;2022-09-21T00:43:23;5.70;99.90
58513;DHT22;44302;47.914;10.642;2022-09-21T00:45:49;5.70;99.90
58513;DHT22;44302;47.914;10.642;2022-09-21T00:48:18;5.70;99.90
58513;DHT22;44302;47.914;10.642;2022-09-21T00:50:49;5.60;99.90
58513;DHT22;44302;47.914;10.642;2022-09-21T05:45:16;3.20;99.90
58513;DHT22;44302;47.914;10.642;2022-09-21T05:47:55;3.30;99.90
58513;DHT22;44302;47.914;10.642;2022-09-21T07:06:03;5.90;99.90
58513;DHT22;44302;47.914;10.642;2022-09-21T07:08:29;5.90;99.90
58513;DHT22;44302;47.914;10.642;2022-09-21T07:10:59;6.00;99.90
58513;DHT22;44302;47.914;10.642;2022-09-21T07:13:25;6.10;99.90
58513;DHT22;44302;47.914;10.642;2022-09-21T07:15:52;6.20;99.90
58513;DHT22;44302;47.914;10.642;2022-09-21T07:18:17;6.30;99.90
58513;DHT22;44302;47.914;10.642;2022-09-21T07:20:43;6.40;99.90
58513;DHT22;44302;47.914;10.642;2022-09-21T07:23:13;6.50;99.90
58513;DHT22;44302;47.914;10.642;2022-09-21T07:25:43;6.70;99.90
58513;DHT22;44302;47.914;10.642;2022-09-21T07:28:10;6.80;99.90
58513;DHT22;44302;47.914;10.642;2022-09-21T07:30:37;6.90;99.90
58513;DHT22;44302;47.914;10.642;2022-09-21T07:33:03;7.00;99.90
58513;DHT22;44302;47.914;10.642;2022-09-21T07:35:29;7.10;99.90
58513;DHT22;44302;47.914;10.642;2022-09-21T07:37:59;7.30;99.90
58513;DHT22;44302;47.914;10.642;2022-09-21T07:40:25;7.50;99.90
58513;DHT22;44302;47.914;10.642;2022-09-21T07:42:51;7.80;99.90
58513;DHT22;44302;47.914;10.642;2022-09-21T07:45:17;8.00;99.90
58513;DHT22;44302;47.914;10.642;2022-09-21T07:47:43;8.40;99.90
58513;DHT22;44302;47.914;10.642;2022-09-21T07:50:08;8.80;99.90
58513;DHT22;44302;47.914;10.642;2022-09-21T07:52:34;9.10;99.90
58513;DHT22;44302;47.914;10.642;2022-09-21T07:55:00;9.30;99.90
58513;DHT22;44302;47.914;10.642;2022-09-21T07:57:26;9.60;99.90
58513;DHT22;44302;47.914;10.642;2022-09-21T08:00:11;10.00;99.90
58513;DHT22;44302;47.914;10.642;2022-09-21T08:02:37;10.40;99.90
58513;DHT22;44302;47.914;10.642;2022-09-21T08:05:03;10.80;99.90
58513;DHT22;44302;47.914;10.642;2022-09-21T08:07:29;11.20;99.90
58513;DHT22;44302;47.914;10.642;2022-09-21T08:09:55;11.40;99.90
58513;DHT22;44302;47.914;10.642;2022-09-21T08:12:21;11.60;99.90
58513;DHT22;44302;47.914;10.642;2022-09-21T08:14:46;11.90;99.90
58513;DHT22;44302;47.914;10.642;2022-09-21T08:17:12;12.10;99.90
58513;DHT22;44302;47.914;10.642;2022-09-21T08:19:39;12.40;99.90
58513;DHT22;44302;47.914;10.642;2022-09-21T08:22:05;12.60;99.90
58513;DHT22;44302;47.914;10.642;2022-09-21T08:24:31;12.80;99.90
58513;DHT22;44302;47.914;10.642;2022-09-21T08:26:58;13.00;99.90
58513;DHT22;44302;47.914;10.642;2022-09-21T08:29:24;13.10;99.90
58513;DHT22;44302;47.914;10.642;2022-09-21T08:31:50;13.20;99.90
58513;DHT22;44302;47.914;10.642;2022-09-21T08:34:18;13.30;99.90
58513;DHT22;44302;47.914;10.642;2022-09-21T08:36:44;13.50;99.90
58513;DHT22;44302;47.914;10.642;2022-09-21T08:39:11;13.80;99.90
58513;DHT22;44302;47.914;10.642;2022-09-21T08:41:49;14.20;99.90
58513;DHT22;44302;47.914;10.642;2022-09-21T08:44:17;14.40;99.90
58513;DHT22;44302;47.914;10.642;2022-09-21T08:46:56;14.80;99.90
58513;DHT22;44302;47.914;10.642;2022-09-21T08:49:26;15.30;99.90
58513;DHT22;44302;47.914;10.642;2022-09-21T08:52:03;15.60;99.90
58513;DHT22;44302;47.914;10.642;2022-09-21T08:55:06;15.90;99.90
58513;DHT22;44302;47.914;10.642;2022-09-21T08:57:34;16.30;99.90
58513;DHT22;44302;47.914;10.642;2022-09-21T09:00:00;16.60;99.90
58513;DHT22;44302;47.914;10.642;2022-09-21T09:08:03;16.60;99.90
58513;DHT22;44302;47.914;10.642;2022-09-21T09:19:21;16.50;99.90
58513;DHT22;44302;47.914;10.642;2022-09-21T09:21:49;16.70;99.90
58513;DHT22;44302;47.914;10.642;2022-09-21T09:24:37;16.70;99.90
58513;DHT22;44302;47.914;10.642;2022-09-21T09:27:38;16.90;99.90
58513;DHT22;44302;47.914;10.642;2022-09-21T09:30:23;17.20;99.90
58513;DHT22;44302;47.914;10.642;2022-09-21T09:33:05;17.60;99.90
58513;DHT22;44302;47.914;10.642;2022-09-21T09:35:37;17.80;99.90
58513;DHT22;44302;47.914;10.642;2022-09-21T09:38:27;18.00;99.90
58513;DHT22;44302;47.914;10.642;2022-09-21T09:41:26;18.20;99.90
58513;DHT22;44302;47.914;10.642;2022-09-21T09:49:14;18.40;99.90
58513;DHT22;44302;47.914;10.642;2022-09-21T09:51:41;18.40;99.90
58513;DHT22;44302;47.914;10.642;2022-09-21T09:54:13;18.50;99.90
58513;DHT22;44302;47.914;10.642;2022-09-21T09:56:39;18.50;99.90
58513;DHT22;44302;47.914;10.642;2022-09-21T09:59:28;18.60;99.90
58513;DHT22;44302;47.914;10.642;2022-09-21T10:02:05;18.70;99.90
58513;DHT22;44302;47.914;10.642;2022-09-21T10:04:31;18.70;99.90
58513;DHT22;44302;47.914;10.642;2022-09-21T10:06:59;19.00;99.90
58513;DHT22;44302;47.914;10.642;2022-09-21T10:11:52;19.30;99.90
58513;DHT22;44302;47.914;10.642;2022-09-21T10:14:24;19.20;99.90
58513;DHT22;44302;47.914;10.642;2022-09-21T10:16:50;19.00;99.90
58513;DHT22;44302;47.914;10.642;2022-09-21T10:19:21;19.10;99.90
58513;DHT22;44302;47.914;10.642;2022-09-21T10:21:52;19.50;99.90
58513;DHT22;44302;47.914;10.642;2022-09-21T10:24:31;19.80;99.90
58513;DHT22;44302;47.914;10.642;2022-09-21T10:29:50;20.20;99.90
58513;DHT22;44302;47.914;10.642;2022-09-21T10:32:24;20.70;99.90
58513;DHT22;44302;47.914;10.642;2022-09-21T10:37:39;20.80;99.90
58513;DHT22;44302;47.914;10.642;2022-09-21T10:40:25;20.70;99.90
58513;DHT22;44302;47.914;10.642;2022-09-21T10:42:54;20.70;99.90
58513;DHT22;44302;47.914;10.642;2022-09-21T10:45:23;20.70;99.90
58513;DHT22;44302;47.914;10.642;2022-09-21T10:48:13;20.60;99.90
58513;DHT22;44302;47.914;10.642;2022-09-21T10:50:43;20.80;99.90
58513;DHT22;44302;47.914;10.642;2022-09-21T10:55:40;20.90;99.90
58513;DHT22;44302;47.914;10.642;2022-09-21T10:58:11;21.00;99.90
58513;DHT22;44302;47.914;10.642;2022-09-21T11:00:43;21.10;99.90
58513;DHT22;44302;47.914;10.642;2022-09-21T11:08:53;21.10;99.90
58513;DHT22;44302;47.914;10.642;2022-09-21T11:13:59;21.80;99.90
58513;DHT22;44302;47.914;10.642;2022-09-21T11:16:58;22.30;99.90
58513;DHT22;44302;47.914;10.642;2022-09-21T11:19:52;22.40;99.90
58513;DHT22;44302;47.914;10.642;2022-09-21T11:22:39;22.50;98.40
58513;DHT22;44302;47.914;10.642;2022-09-21T11:25:30;22.50;95.80
58513;DHT22;44302;47.914;10.642;2022-09-21T11:28:24;22.50;95.90
58513;DHT22;44302;47.914;10.642;2022-09-21T11:39:08;22.90;93.40
58513;DHT22;44302;47.914;10.642;2022-09-21T11:44:54;23.10;95.90
58513;DHT22;44302;47.914;10.642;2022-09-21T11:47:47;23.40;96.30
58513;DHT22;44302;47.914;10.642;2022-09-21T12:00:23;23.50;88.30
58513;DHT22;44302;47.914;10.642;2022-09-21T12:05:35;23.30;90.00
58513;DHT22;44302;47.914;10.642;2022-09-21T12:11:05;22.80;93.30
58513;DHT22;44302;47.914;10.642;2022-09-21T12:13:53;22.70;89.30
58513;DHT22;44302;47.914;10.642;2022-09-21T12:16:40;22.10;90.30
58513;DHT22;44302;47.914;10.642;2022-09-21T12:19:12;22.00;92.70
58513;DHT22;44302;47.914;10.642;2022-09-21T12:21:46;22.30;92.20
58513;DHT22;44302;47.914;10.642;2022-09-21T12:24:29;22.80;91.80
58513;DHT22;44302;47.914;10.642;2022-09-21T12:27:00;23.00;88.50
58513;DHT22;44302;47.914;10.642;2022-09-21T12:29:48;23.00;92.90
58513;DHT22;44302;47.914;10.642;2022-09-21T12:35:11;23.20;89.90
58513;DHT22;44302;47.914;10.642;2022-09-21T12:42:47;23.60;92.20
58513;DHT22;44302;47.914;10.642;2022-09-21T12:45:33;23.40;87.60
58513;DHT22;44302;47.914;10.642;2022-09-21T12:50:36;23.60;87.40
58513;DHT22;44302;47.914;10.642;2022-09-21T12:53:05;23.60;84.50
58513;DHT22;44302;47.914;10.642;2022-09-21T12:55:52;23.50;87.70
58513;DHT22;44302;47.914;10.642;2022-09-21T13:03:34;23.50;88.10
58513;DHT22;44302;47.914;10.642;2022-09-21T13:08:50;23.40;91.10
58513;DHT22;44302;47.914;10.642;2022-09-21T13:11:16;23.70;82.00
58513;DHT22;44302;47.914;10.642;2022-09-21T13:14:01;23.60;82.60
58513;DHT22;44302;47.914;10.642;2022-09-21T13:16:30;23.60;81.80
58513;DHT22;44302;47.914;10.642;2022-09-21T13:19:02;23.40;83.40
58513;DHT22;44302;47.914;10.642;2022-09-21T13:21:30;23.40;86.40
58513;DHT22;44302;47.914;10.642;2022-09-21T13:26:43;23.20;80.20
58513;DHT22;44302;47.914;10.642;2022-09-21T13:47:52;24.00;80.00
58513;DHT22;44302;47.914;10.642;2022-09-21T13:56:14;24.60;70.60
58513;DHT22;44302;47.914;10.642;2022-09-21T13:58:43;24.40;72.50
58513;DHT22;44302;47.914;10.642;2022-09-21T14:01:20;24.40;73.40
58513;DHT22;44302;47.914;10.642;2022-09-21T14:03:51;24.60;71.50
58513;DHT22;44302;47.914;10.642;2022-09-21T14:06:20;24.30;66.70
58513;DHT22;44302;47.914;10.642;2022-09-21T14:09:00;24.20;72.30
58513;DHT22;44302;47.914;10.642;2022-09-21T14:11:35;24.10;72.00
58513;DHT22;44302;47.914;10.642;2022-09-21T14:27:25;24.00;67.40
58513;DHT22;44302;47.914;10.642;2022-09-21T14:32:27;23.80;71.60
58513;DHT22;44302;47.914;10.642;2022-09-21T14:34:58;23.90;68.50
58513;DHT22;44302;47.914;10.642;2022-09-21T14:37:36;23.70;67.40
58513;DHT22;44302;47.914;10.642;2022-09-21T14:40:15;23.40;69.20
58513;DHT22;44302;47.914;10.642;2022-09-21T14:42:42;23.30;69.80
58513;DHT22;44302;47.914;10.642;2022-09-21T14:45:13;23.30;67.60
58513;DHT22;44302;47.914;10.642;2022-09-21T14:50:43;23.00;65.70
58513;DHT22;44302;47.914;10.642;2022-09-21T14:56:16;22.30;66.40
58513;DHT22;44302;47.914;10.642;2022-09-21T15:04:28;21.10;69.60
58513;DHT22;44302;47.914;10.642;2022-09-21T15:10:23;19.90;71.00
58513;DHT22;44302;47.914;10.642;2022-09-21T15:16:05;18.50;72.40
58513;DHT22;44302;47.914;10.642;2022-09-21T15:18:40;17.60;75.60
58513;DHT22;44302;47.914;10.642;2022-09-21T15:21:28;16.70;79.30
58513;DHT22;44302;47.914;10.642;2022-09-21T15:23:55;15.90;81.90
58513;DHT22;44302;47.914;10.642;2022-09-21T15:26:29;15.50;85.30
58513;DHT22;44302;47.914;10.642;2022-09-21T15:29:02;15.20;85.60
58513;DHT22;44302;47.914;10.642;2022-09-21T15:31:39;14.90;85.20
58513;DHT22;44302;47.914;10.642;2022-09-21T15:34:07;14.60;88.40
58513;DHT22;44302;47.914;10.642;2022-09-21T15:36:37;14.40;89.20
58513;DHT22;44302;47.914;10.642;2022-09-21T15:39:04;14.20;88.00
58513;DHT22;44302;47.914;10.642;2022-09-21T15:41:43;14.10;87.80
58513;DHT22;44302;47.914;10.642;2022-09-21T15:44:15;13.90;89.50
58513;DHT22;44302;47.914;10.642;2022-09-21T15:46:44;13.80;89.40
58513;DHT22;44302;47.914;10.642;2022-09-21T15:49:13;13.70;89.50
58513;DHT22;44302;47.914;10.642;2022-09-21T15:51:43;13.60;90.00
58513;DHT22;44302;47.914;10.642;2022-09-21T15:56:46;13.50;90.40
58513;DHT22;44302;47.914;10.642;2022-09-21T15:59:16;13.40;91.10
58513;DHT22;44302;47.914;10.642;2022-09-21T16:01:47;13.40;91.40
58513;DHT22;44302;47.914;10.642;2022-09-21T16:04:24;13.30;91.40
58513;DHT22;44302;47.914;10.642;2022-09-21T16:07:01;13.30;91.70
58513;DHT22;44302;47.914;10.642;2022-09-21T16:09:39;13.20;92.10
58513;DHT22;44302;47.914;10.642;2022-09-21T16:12:38;13.10;92.10
58513;DHT22;44302;47.914;10.642;2022-09-21T16:15:37;13.00;92.50
58513;DHT22;44302;47.914;10.642;2022-09-21T16:18:04;12.90;92.50
58513;DHT22;44302;47.914;10.642;2022-09-21T16:20:41;12.90;93.10
58513;DHT22;44302;47.914;10.642;2022-09-21T16:23:16;12.80;92.30
58513;DHT22;44302;47.914;10.642;2022-09-21T16:25:43;12.70;92.90
58513;DHT22;44302;47.914;10.642;2022-09-21T16:33:38;12.50;93.60
58513;DHT22;44302;47.914;10.642;2022-09-21T16:38:54;12.30;94.90
58513;DHT22;44302;47.914;10.642;2022-09-21T16:41:20;12.20;94.90
58513;DHT22;44302;47.914;10.642;2022-09-21T16:43:47;12.10;95.20
58513;DHT22;44302;47.914;10.642;2022-09-21T16:46:15;12.10;95.90
58513;DHT22;44302;47.914;10.642;2022-09-21T16:48:40;12.00;95.80
58513;DHT22;44302;47.914;10.642;2022-09-21T16:51:11;12.00;97.20
58513;DHT22;44302;47.914;10.642;2022-09-21T16:53:40;11.90;97.20
58513;DHT22;44302;47.914;10.642;2022-09-21T16:56:13;11.90;97.90
58513;DHT22;44302;47.914;10.642;2022-09-21T16:58:40;11.80;97.90
58513;DHT22;44302;47.914;10.642;2022-09-21T17:01:16;11.80;99.60
58513;DHT22;44302;47.914;10.642;2022-09-21T17:03:43;11.80;99.20
58513;DHT22;44302;47.914;10.642;2022-09-21T17:06:21;11.70;99.00
58513;DHT22;44302;47.914;10.642;2022-09-21T17:08:47;11.70;99.90
58513;DHT22;44302;47.914;10.642;2022-09-21T17:11:18;11.70;99.90
58513;DHT22;44302;47.914;10.642;2022-09-21T17:13:48;11.60;98.70
58513;DHT22;44302;47.914;10.642;2022-09-21T17:16:14;11.50;99.90
58513;DHT22;44302;47.914;10.642;2022-09-21T17:18:46;11.40;99.90
58513;DHT22;44302;47.914;10.642;2022-09-21T17:21:12;11.40;99.90
58513;DHT22;44302;47.914;10.642;2022-09-21T17:23:39;11.30;99.90
58513;DHT22;44302;47.914;10.642;2022-09-21T17:26:16;11.20;99.90
58513;DHT22;44302;47.914;10.642;2022-09-21T17:28:45;11.10;99.90
58513;DHT22;44302;47.914;10.642;2022-09-21T17:31:12;11.10;99.90
58513;DHT22;44302;47.914;10.642;2022-09-21T17:33:39;11.00;99.90
58513;DHT22;44302;47.914;10.642;2022-09-21T17:36:06;10.90;99.90
58513;DHT22;44302;47.914;10.642;2022-09-21T17:38:35;10.80;99.90
58513;DHT22;44302;47.914;10.642;2022-09-21T17:41:05;10.80;99.90
58513;DHT22;44302;47.914;10.642;2022-09-21T17:44:10;10.70;99.90
58513;DHT22;44302;47.914;10.642;2022-09-21T17:46:44;10.60;99.90
58513;DHT22;44302;47.914;10.642;2022-09-21T17:49:11;10.50;99.90
58513;DHT22;44302;47.914;10.642;2022-09-21T17:51:37;10.50;99.90
58513;DHT22;44302;47.914;10.642;2022-09-21T17:54:22;10.50;99.90
58513;DHT22;44302;47.914;10.642;2022-09-21T17:59:39;10.30;99.90
58513;DHT22;44302;47.914;10.642;2022-09-21T18:02:23;10.20;99.90
58513;DHT22;44302;47.914;10.642;2022-09-21T18:04:55;10.20;99.90
58513;DHT22;44302;47.914;10.642;2022-09-21T18:07:22;10.20;99.90
58513;DHT22;44302;47.914;10.642;2022-09-21T18:09:50;10.10;99.90
58513;DHT22;44302;47.914;10.642;2022-09-21T18:15:22;9.90;99.90
58513;DHT22;44302;47.914;10.642;2022-09-21T18:20:52;9.80;99.90
58513;DHT22;44302;47.914;10.642;2022-09-21T18:26:09;9.60;99.90
58513;DHT22;44302;47.914;10.642;2022-09-21T18:28:47;9.60;99.90
58513;DHT22;44302;47.914;10.642;2022-09-21T18:36:26;9.40;99.90
58513;DHT22;44302;47.914;10.642;2022-09-21T18:39:14;9.40;99.90
58513;DHT22;44302;47.914;10.642;2022-09-21T18:44:30;9.20;99.90
58513;DHT22;44302;47.914;10.642;2022-09-21T18:47:10;9.10;99.90
58513;DHT22;44302;47.914;10.642;2022-09-21T18:55:01;8.90;99.90
58513;DHT22;44302;47.914;10.642;2022-09-21T18:57:27;8.90;99.90
58513;DHT22;44302;47.914;10.642;2022-09-21T18:59:57;8.80;99.90
58513;DHT22;44302;47.914;10.642;2022-09-21T19:02:23;8.80;99.90
58513;DHT22;44302;47.914;10.642;2022-09-21T19:04:49;8.70;99.90
58513;DHT22;44302;47.914;10.642;2022-09-21T19:07:51;8.60;99.90
58513;DHT22;44302;47.914;10.642;2022-09-21T19:10:31;8.60;99.90
58513;DHT22;44302;47.914;10.642;2022-09-21T19:13:11;8.50;99.90
58513;DHT22;44302;47.914;10.642;2022-09-21T19:15:45;8.40;99.90
58513;DHT22;44302;47.914;10.642;2022-09-21T19:23:50;8.30;99.90
58513;DHT22;44302;47.914;10.642;2022-09-21T19:29:33;8.20;99.90
58513;DHT22;44302;47.914;10.642;2022-09-21T19:32:14;8.10;99.90
58513;DHT22;44302;47.914;10.642;2022-09-21T19:34:41;8.10;99.90
58513;DHT22;44302;47.914;10.642;2022-09-21T19:37:06;8.00;99.90
58513;DHT22;44302;47.914;10.642;2022-09-21T19:39:33;8.00;99.90
58513;DHT22;44302;47.914;10.642;2022-09-21T19:42:14;8.00;99.90
58513;DHT22;44302;47.914;10.642;2022-09-21T19:47:51;7.90;99.90
58513;DHT22;44302;47.914;10.642;2022-09-21T19:52:49;7.80;99.90
58513;DHT22;44302;47.914;10.642;2022-09-21T19:55:20;7.80;99.90
58513;DHT22;44302;47.914;10.642;2022-09-21T19:58:05;7.80;99.90
58513;DHT22;44302;47.914;10.642;2022-09-21T20:00:52;7.70;99.90
58513;DHT22;44302;47.914;10.642;2022-09-21T20:03:40;7.70;99.90
58513;DHT22;44302;47.914;10.642;2022-09-21T20:06:37;7.60;99.90
58513;DHT22;44302;47.914;10.642;2022-09-21T20:09:31;7.60;99.90
58513;DHT22;44302;47.914;10.642;2022-09-21T20:14:41;7.50;99.90
58513;DHT22;44302;47.914;10.642;2022-09-21T20:17:13;7.40;99.90
58513;DHT22;44302;47.914;10.642;2022-09-21T20:22:13;7.30;99.90
58513;DHT22;44302;47.914;10.642;2022-09-21T20:24:59;7.30;99.90
58513;DHT22;44302;47.914;10.642;2022-09-21T20:27:43;7.20;99.90
58513;DHT22;44302;47.914;10.642;2022-09-21T20:30:13;7.20;99.90
58513;DHT22;44302;47.914;10.642;2022-09-21T20:32:41;7.10;99.90
58513;DHT22;44302;47.914;10.642;2022-09-21T20:35:28;7.20;99.90
58513;DHT22;44302;47.914;10.642;2022-09-21T20:37:55;7.10;99.90
58513;DHT22;44302;47.914;10.642;2022-09-21T20:40:21;7.10;99.90
58513;DHT22;44302;47.914;10.642;2022-09-21T20:42:51;7.10;99.90
58513;DHT22;44302;47.914;10.642;2022-09-21T20:45:18;7.10;99.90
58513;DHT22;44302;47.914;10.642;2022-09-21T20:47:43;7.00;99.90
58513;DHT22;44302;47.914;10.642;2022-09-21T20:50:09;7.00;99.90
58513;DHT22;44302;47.914;10.642;2022-09-21T20:52:41;6.90;99.90
58513;DHT22;44302;47.914;10.642;2022-09-21T20:55:09;6.90;99.90
58513;DHT22;44302;47.914;10.642;2022-09-21T20:57:35;6.90;99.90
58513;DHT22;44302;47.914;10.642;2022-09-21T21:00:05;6.80;99.90
58513;DHT22;44302;47.914;10.642;2022-09-21T21:02:32;6.70;99.90
58513;DHT22;44302;47.914;10.642;2022-09-21T21:04:58;6.70;99.90
58513;DHT22;44302;47.914;10.642;2022-09-21T21:07:24;6.70;99.90
58513;DHT22;44302;47.914;10.642;2022-09-21T21:12:16;6.60;99.90
58513;DHT22;44302;47.914;10.642;2022-09-21T21:14:42;6.60;99.90
58513;DHT22;44302;47.914;10.642;2022-09-21T21:17:10;6.60;99.90
58513;DHT22;44302;47.914;10.642;2022-09-21T21:24:30;6.50;99.90
58513;DHT22;44302;47.914;10.642;2022-09-21T21:27:25;6.50;99.90
58513;DHT22;44302;47.914;10.642;2022-09-21T21:29:53;6.40;99.90
58513;DHT22;44302;47.914;10.642;2022-09-21T21:32:23;6.30;99.90
58513;DHT22;44302;47.914;10.642;2022-09-21T21:34:50;6.30;99.90
58513;DHT22;44302;47.914;10.642;2022-09-21T21:37:18;6.30;99.90
58513;DHT22;44302;47.914;10.642;2022-09-21T21:42:10;6.30;99.90
58513;DHT22;44302;47.914;10.642;2022-09-21T21:54:24;6.10;99.90
58513;DHT22;44302;47.914;10.642;2022-09-21T22:01:46;6.10;99.90
58513;DHT22;44302;47.914;10.642;2022-09-21T22:06:39;6.00;99.90
58513;DHT22;44302;47.914;10.642;2022-09-21T22:09:06;6.00;99.90
58513;DHT22;44302;47.914;10.642;2022-09-21T22:11:33;6.00;99.90
58513;DHT22;44302;47.914;10.642;2022-09-21T22:14:00;5.90;99.90
58513;DHT22;44302;47.914;10.642;2022-09-21T22:16:28;5.90;99.90
58513;DHT22;44302;47.914;10.642;2022-09-21T22:18:54;5.80;99.90
58513;DHT22;44302;47.914;10.642;2022-09-21T22:21:29;5.80;99.90
58513;DHT22;44302;47.914;10.642;2022-09-21T22:23:56;5.80;99.90
58513;DHT22;44302;47.914;10.642;2022-09-21T22:26:23;5.80;99.90
58513;DHT22;44302;47.914;10.642;2022-09-21T22:28:51;5.80;99.90
58513;DHT22;44302;47.914;10.642;2022-09-21T22:31:20;5.80;99.90
58513;DHT22;44302;47.914;10.642;2022-09-21T22:33:46;5.80;99.90
58513;DHT22;44302;47.914;10.642;2022-09-21T22:36:17;5.80;99.90
58513;DHT22;44302;47.914;10.642;2022-09-21T22:38:43;5.70;99.90
58513;DHT22;44302;47.914;10.642;2022-09-21T22:41:15;5.70;99.90
58513;DHT22;44302;47.914;10.642;2022-09-21T22:43:44;5.60;99.90
58513;DHT22;44302;47.914;10.642;2022-09-21T22:46:10;5.60;99.90
58513;DHT22;44302;47.914;10.642;2022-09-21T22:48:36;5.50;99.90
58513;DHT22;44302;47.914;10.642;2022-09-21T22:51:03;5.50;99.90
58513;DHT22;44302;47.914;10.642;2022-09-21T22:53:29;5.50;99.90
58513;DHT22;44302;47.914;10.642;2022-09-21T22:56:15;5.50;99.90
58513;DHT22;44302;47.914;10.642;2022-09-21T22:58:43;5.40;99.90
58513;DHT22;44302;47.914;10.642;2022-09-21T23:01:14;5.40;99.90
58513;DHT22;44302;47.914;10.642;2022-09-21T23:03:45;5.40;99.90
58513;DHT22;44302;47.914;10.642;2022-09-21T23:06:14;5.40;99.90
58513;DHT22;44302;47.914;10.642;2022-09-21T23:08:40;5.40;99.90
58513;DHT22;44302;47.914;10.642;2022-09-21T23:11:13;5.30;99.90
58513;DHT22;44302;47.914;10.642;2022-09-21T23:13:39;5.30;99.90
58513;DHT22;44302;47.914;10.642;2022-09-21T23:16:08;5.20;99.90
58513;DHT22;44302;47.914;10.642;2022-09-21T23:18:35;5.20;99.90
58513;DHT22;44302;47.914;10.642;2022-09-21T23:21:07;5.20;99.90
58513;DHT22;44302;47.914;10.642;2022-09-21T23:23:33;5.20;99.90
58513;DHT22;44302;47.914;10.642;2022-09-21T23:26:09;5.10;99.90
58513;DHT22;44302;47.914;10.642;2022-09-21T23:28:36;5.10;99.90
58513;DHT22;44302;47.914;10.642;2022-09-21T23:31:05;5.10;99.90
58513;DHT22;44302;47.914;10.642;2022-09-21T23:33:37;5.10;99.90
58513;DHT22;44302;47.914;10.642;2022-09-21T23:36:04;5.10;99.90
58513;DHT22;44302;47.914;10.642;2022-09-21T23:38:30;5.10;99.90
58513;DHT22;44302;47.914;10.642;2022-09-21T23:41:10;5.00;99.90
58513;DHT22;44302;47.914;10.642;2022-09-21T23:43:37;5.00;99.90
58513;DHT22;44302;47.914;10.642;2022-09-21T23:46:04;5.00;99.90
58513;DHT22;44302;47.914;10.642;2022-09-21T23:50:56;4.90;99.90
58513;DHT22;44302;47.914;10.642;2022-09-21T23:53:22;4.90;99.90
58513;DHT22;44302;47.914;10.642;2022-09-21T23:55:49;4.90;99.90
58513;DHT22;44302;47.914;10.642;2022-09-21T23:58:14;4.90;99.90
